Ida, LA (71044)

11:03 AM CST on December 04, 2016 (GMT -0600)
Ida city limits | | Change Station

Elev 66 ft 33.00 °N, 93.90 °W | Updated 1 minute ago

Overcast
Overcast
47.7 °F
Feels Like 48 °F
N
2.0
Wind Variable Wind from NNW

Today
High -- | Low -- °F
--% Chance of Precip.
Yesterday
High -- | Low -- °F
Precip. -- in
Pressure 30.06 in
Visibility 9.0 miles
Clouds Overcast 500 ft
Windchill 48 °F
Dew Point 46 °F
Humidity 96%
Rainfall 0.00 in
Snow Depth Not available.
7:03 AM 5:08 PM
Waxing Crescent, 24% visible
METAR KTXK 041653Z 36004KT 9SM OVC005 08/07 A3006 RMK AO2 SLP177 T00830072 $
Pressure 30.06 in
Visibility 9.0 miles
Clouds Overcast 500 ft
Windchill 48 °F
Dew Point 46 °F
Humidity 96%
Rainfall 0.00 in
Snow Depth Not available.
7:03 AM 5:08 PM
Waxing Crescent, 24% visible
METAR KTXK 041653Z 36004KT 9SM OVC005 08/07 A3006 RMK AO2 SLP177 T00830072 $

10-Day Weather Forecast

Almanac

Astronomy

Dec. 04, 2016 Rise Set
Actual Time
Civil Twilight
Nautical Twilight
Astronomical Twilight
Moon
Length of Visible Light
Length of Day
Tomorrow will be .
, % of the Moon is Illuminated

Today's Extremes

State Highs State Lows

Community

WunderPhotos

Upload Photos

1,955,630 photos uploaded!

WunderBlog® & News

Nearby

Air Quality

  Air Quality AQ Index Pollutant
Not available.

Snow Depth

Station Depth Elevation

Earthquake Activity

City Distance Mag. Time & Date
Minimum magnitude displayed is 2.5.

Coastal Water Temperatures

Place Temperature

Stations

Nearby Weather Stations

Station Location Temp. Windchill Dew Point Humidity Wind Precip. Elev Updated Type
                   

Watches & Warnings

There are currently no watches in effect.